Galicia — ECEC — position and weather

sailwx.info

Track history (hours):
 
Tides and Currents Weather Stations Pressure Air Temp Water Temp Dewpoint Dewpoint Depression Visibility Wind Speed Wind Dir Waves Ship Positions

Galicia

Last reported at 2014-Aug-15 13:33 UTC. Time now 2014-Aug-29 10:23 UTC.
Position N 37°25' W 000°47'.
Warning: this ship's position is 13 days out of date.

Length 149 m; draft 5.8 m.

Type: Cargo ship. MMSI: 224548000.

Date/timePositionNaut miles runAvg speedWind from/ knotsBaromVisibWave heightAir tempDewpointWater temp
2014-Aug-15 13:33N 37°25' W 000°47'1615.6
2014-Aug-15 12:33N 37°36' W 000°32'1515.5
2014-Aug-15 11:33N 37°49' W 000°21'24315.1
2014-Aug-14 19:26N 41°21' E 002°11'15 0.6
2014-Aug-13 20:26N 41°07' E 002°07'1214.3
2014-Aug-13 19:34N 40°56' E 001°59'1414.4
2014-Aug-13 18:33N 40°43' E 001°51'10 9.9
2014-Aug-13 17:33N 40°34' E 001°44'9 9.0
2014-Aug-13 16:33N 40°26' E 001°39'9 8.5
2014-Aug-13 15:33N 40°19' E 001°34'8 8.0
2014-Aug-13 14:33N 40°12' E 001°29'8 8.1
2014-Aug-13 13:33N 40°04' E 001°24'8 8.0
2014-Aug-13 12:33N 39°57' E 001°20'8 7.9
2014-Aug-13 11:31N 39°50' E 001°14'9 8.1
2014-Aug-13 10:27N 39°43' E 001°09'75 9.3
2014-Aug-13 02:19N 38°36' E 000°23'7 9.4
2014-Aug-13 01:32N 38°30' E 000°18'28 9.2
2014-Aug-12 22:30N 38°07' W 000°02'10 9.3
2014-Aug-12 21:28N 37°59' W 000°09'21 9.5
2014-Aug-12 19:17N 37°41' W 000°24'7 9.9
2014-Aug-12 18:32N 37°35' W 000°29'11 9.9
2014-Aug-12 17:24N 37°27' W 000°39'8 9.7
2014-Aug-12 16:33N 37°22' W 000°47'107 9.6
2014-Aug-12 05:25N 36°20' W 002°36'  
Track history (hours):
 
Tides and Currents Weather Stations Pressure Air Temp Water Temp Dewpoint Dewpoint Depression Visibility Wind Speed Wind Dir Waves Ship Positions

Galicia

Last reported at 2014-Aug-15 13:33 UTC. Time now 2014-Aug-29 10:23 UTC.
Position N 37°25' W 000°47'.
Warning: this ship's position is 13 days out of date.

Length 149 m; draft 5.8 m.

Type: Cargo ship. MMSI: 224548000.

Date/timePositionNaut miles runAvg speedWind from/ knotsBaromVisibWave heightAir tempDewpointWater temp
2014-Aug-15 13:33N 37°25' W 000°47'1615.6
2014-Aug-15 12:33N 37°36' W 000°32'1515.5
2014-Aug-15 11:33N 37°49' W 000°21'24315.1
2014-Aug-14 19:26N 41°21' E 002°11'15 0.6
2014-Aug-13 20:26N 41°07' E 002°07'1214.3
2014-Aug-13 19:34N 40°56' E 001°59'1414.4
2014-Aug-13 18:33N 40°43' E 001°51'10 9.9
2014-Aug-13 17:33N 40°34' E 001°44'9 9.0
2014-Aug-13 16:33N 40°26' E 001°39'9 8.5
2014-Aug-13 15:33N 40°19' E 001°34'8 8.0
2014-Aug-13 14:33N 40°12' E 001°29'8 8.1
2014-Aug-13 13:33N 40°04' E 001°24'8 8.0
2014-Aug-13 12:33N 39°57' E 001°20'8 7.9
2014-Aug-13 11:31N 39°50' E 001°14'9 8.1
2014-Aug-13 10:27N 39°43' E 001°09'75 9.3
2014-Aug-13 02:19N 38°36' E 000°23'7 9.4
2014-Aug-13 01:32N 38°30' E 000°18'28 9.2
2014-Aug-12 22:30N 38°07' W 000°02'10 9.3
2014-Aug-12 21:28N 37°59' W 000°09'21 9.5
2014-Aug-12 19:17N 37°41' W 000°24'7 9.9
2014-Aug-12 18:32N 37°35' W 000°29'11 9.9
2014-Aug-12 17:24N 37°27' W 000°39'8 9.7
2014-Aug-12 16:33N 37°22' W 000°47'107 9.6
2014-Aug-12 05:25N 36°20' W 002°36'  

Dump ship's entire track history